createdAt,value
2022-09-07T00:00:24.118Z,18.30
2022-09-07T00:02:50.793Z,18.30
2022-09-07T00:05:17.510Z,18.30
2022-09-07T00:07:44.111Z,18.30
2022-09-07T00:10:10.745Z,18.20
2022-09-07T00:12:37.393Z,18.30
2022-09-07T00:15:08.237Z,18.30
2022-09-07T00:17:35.596Z,18.20
2022-09-07T00:20:03.584Z,18.30
2022-09-07T00:22:30.490Z,18.30
2022-09-07T00:24:57.140Z,18.30
2022-09-07T00:27:23.797Z,18.40
2022-09-07T00:29:50.418Z,18.30
2022-09-07T00:32:17.079Z,18.30
2022-09-07T00:34:43.816Z,18.30
2022-09-07T00:37:10.509Z,18.30
2022-09-07T00:39:37.556Z,18.30
2022-09-07T00:42:04.672Z,18.30
2022-09-07T00:44:43.565Z,18.40
2022-09-07T00:47:19.461Z,18.40
2022-09-07T00:49:51.759Z,18.30
2022-09-07T00:52:20.387Z,18.30
2022-09-07T00:54:52.748Z,18.30
2022-09-07T00:57:20.175Z,18.20
2022-09-07T00:59:53.339Z,18.30
2022-09-07T01:02:20.842Z,18.30
2022-09-07T01:05:26.042Z,18.50
2022-09-07T01:07:56.152Z,18.60
2022-09-07T01:10:26.940Z,18.70
2022-09-07T01:12:53.929Z,18.70
2022-09-07T01:15:23.592Z,18.60
2022-09-07T01:18:01.727Z,18.60
2022-09-07T01:21:10.454Z,18.60
2022-09-07T01:24:02.143Z,18.60
2022-09-07T01:27:02.307Z,18.60
2022-09-07T01:29:54.360Z,18.60
2022-09-07T01:33:04.091Z,18.60
2022-09-07T01:35:48.965Z,18.60
2022-09-07T01:38:33.669Z,18.70
2022-09-07T01:41:18.922Z,18.70
2022-09-07T01:43:48.271Z,18.70
2022-09-07T01:46:37.870Z,18.90
2022-09-07T01:49:21.859Z,18.90
2022-09-07T01:51:55.457Z,19.00
2022-09-07T01:54:31.564Z,19.00
2022-09-07T01:57:03.665Z,19.10
2022-09-07T01:59:35.768Z,19.20
2022-09-07T02:02:30.806Z,19.20
2022-09-07T02:05:08.880Z,19.10
2022-09-07T02:07:44.738Z,19.10
2022-09-07T02:10:19.308Z,19.10
2022-09-07T02:12:57.205Z,19.00
2022-09-07T02:15:44.381Z,19.00
2022-09-07T02:18:14.173Z,19.00
2022-09-07T02:20:46.023Z,19.10
2022-09-07T02:23:21.791Z,19.00
2022-09-07T02:25:58.899Z,19.00
2022-09-07T02:28:31.604Z,19.00
2022-09-07T02:30:59.072Z,19.10
2022-09-07T02:33:26.289Z,19.10
2022-09-07T02:35:53.174Z,19.20
2022-09-07T02:38:20.059Z,19.30
2022-09-07T02:40:52.229Z,19.60
2022-09-07T02:43:21.624Z,19.60
2022-09-07T02:46:03.799Z,19.50
2022-09-07T02:48:51.278Z,19.50
2022-09-07T02:51:23.578Z,19.50
2022-09-07T02:54:33.682Z,19.50
2022-09-07T02:57:17.889Z,19.50
2022-09-07T02:59:44.445Z,19.40
2022-09-07T03:02:31.117Z,19.40
2022-09-07T03:05:06.185Z,19.30
2022-09-07T03:07:43.519Z,19.20
2022-09-07T03:10:14.199Z,19.10
2022-09-07T03:12:44.830Z,19.00
2022-09-07T03:15:16.755Z,19.00
2022-09-07T03:17:45.133Z,18.90
2022-09-07T03:20:12.506Z,18.70
2022-09-07T03:22:39.529Z,18.70
2022-09-07T03:25:06.909Z,18.60
2022-09-07T03:27:33.578Z,18.60
2022-09-07T03:30:00.823Z,18.50
2022-09-07T03:32:35.491Z,18.40
2022-09-07T03:35:04.000Z,18.30
2022-09-07T03:37:30.581Z,18.10
2022-09-07T03:39:57.489Z,18.00
2022-09-07T03:42:24.243Z,17.90
2022-09-07T03:44:50.839Z,17.80
2022-09-07T03:47:18.004Z,17.70
2022-09-07T03:49:44.866Z,17.60
2022-09-07T03:52:11.909Z,17.50
2022-09-07T03:54:39.730Z,17.40
2022-09-07T03:57:06.806Z,17.40
2022-09-07T03:59:33.630Z,17.40
2022-09-07T04:02:00.333Z,17.30
2022-09-07T04:04:27.082Z,17.30
2022-09-07T04:06:53.676Z,17.20
2022-09-07T04:09:20.570Z,17.10
2022-09-07T04:11:47.199Z,17.10
2022-09-07T04:14:13.795Z,17.00
2022-09-07T04:16:40.781Z,16.90
2022-09-07T04:19:07.369Z,16.90
2022-09-07T04:21:34.366Z,16.80
2022-09-07T04:24:01.381Z,16.80
2022-09-07T04:26:30.561Z,16.80
2022-09-07T04:28:58.092Z,16.90
2022-09-07T04:31:25.218Z,16.90
2022-09-07T04:33:52.735Z,16.80
2022-09-07T04:36:20.189Z,16.80
2022-09-07T04:38:46.941Z,16.70
2022-09-07T04:41:16.742Z,16.70
2022-09-07T04:43:44.451Z,16.60
2022-09-07T04:46:18.621Z,16.60
2022-09-07T04:48:49.102Z,16.50
2022-09-07T04:51:16.162Z,16.50
2022-09-07T04:53:42.733Z,16.50
2022-09-07T04:56:11.841Z,16.60
2022-09-07T04:58:40.461Z,16.60
2022-09-07T05:01:08.063Z,16.60
2022-09-07T05:03:37.729Z,16.60
2022-09-07T05:06:06.204Z,16.60
2022-09-07T05:08:41.559Z,16.70
2022-09-07T05:11:09.658Z,16.80
2022-09-07T05:13:36.529Z,16.90
2022-09-07T05:16:08.560Z,16.90
2022-09-07T05:18:35.386Z,16.90
2022-09-07T05:21:09.833Z,17.00
2022-09-07T05:23:36.461Z,16.90
2022-09-07T05:26:04.884Z,16.90
2022-09-07T05:28:32.283Z,16.90
2022-09-07T05:31:17.998Z,16.80
2022-09-07T05:36:38.014Z,17.00
2022-09-07T05:39:05.828Z,17.10
2022-09-07T05:41:32.529Z,17.10
2022-09-07T05:46:45.729Z,17.40
2022-09-07T05:49:12.301Z,17.60
2022-09-07T05:51:38.880Z,17.80
2022-09-07T05:54:05.711Z,18.10
2022-09-07T05:56:35.816Z,18.30
2022-09-07T05:59:02.530Z,18.50
2022-09-07T06:01:29.101Z,18.70
2022-09-07T06:03:55.700Z,18.80
2022-09-07T06:06:22.355Z,18.80
2022-09-07T06:08:51.368Z,18.90
2022-09-07T06:11:24.114Z,18.90
2022-09-07T06:13:51.869Z,18.80
2022-09-07T06:16:19.630Z,18.80
2022-09-07T06:18:48.244Z,18.80
2022-09-07T06:21:20.389Z,18.80
2022-09-07T06:23:48.685Z,18.80
2022-09-07T06:26:16.520Z,18.90
2022-09-07T06:28:48.949Z,19.00
2022-09-07T06:31:18.816Z,19.10
2022-09-07T06:33:47.435Z,19.30
2022-09-07T06:36:20.995Z,19.50
2022-09-07T06:38:49.119Z,19.70
2022-09-07T06:44:04.575Z,20.10
2022-09-07T06:49:17.801Z,20.30
2022-09-07T06:51:44.381Z,20.40
2022-09-07T06:56:57.607Z,20.30
2022-09-07T06:59:24.260Z,20.40
2022-09-07T07:01:50.828Z,20.40
2022-09-07T07:04:17.391Z,20.50
2022-09-07T07:06:43.975Z,20.50
2022-09-07T07:09:12.965Z,20.50
2022-09-07T07:11:39.778Z,20.50
2022-09-07T07:14:06.457Z,20.60
2022-09-07T07:16:33.235Z,20.70
2022-09-07T07:19:00.028Z,20.80
2022-09-07T07:21:29.010Z,20.90
2022-09-07T07:24:04.976Z,21.00
2022-09-07T07:26:34.576Z,21.10
2022-09-07T07:29:02.773Z,21.20
2022-09-07T07:31:32.515Z,21.40
2022-09-07T07:33:59.134Z,21.60
2022-09-07T07:36:27.102Z,21.70
2022-09-07T07:44:18.407Z,22.00
2022-09-07T07:46:51.179Z,22.00
2022-09-07T07:49:18.060Z,22.20
2022-09-07T07:54:34.025Z,22.40
2022-09-07T07:57:00.541Z,22.50
2022-09-07T07:59:27.507Z,22.60
2022-09-07T08:01:54.126Z,22.70
2022-09-07T08:04:20.689Z,22.70
2022-09-07T08:06:47.209Z,22.70
2022-09-07T08:09:13.776Z,22.70
2022-09-07T08:11:40.475Z,22.90
2022-09-07T08:14:08.505Z,22.90
2022-09-07T08:16:36.121Z,23.10
2022-09-07T08:19:03.314Z,23.10
2022-09-07T08:21:29.917Z,23.10
2022-09-07T08:23:56.513Z,23.20
2022-09-07T08:26:23.055Z,23.30
2022-09-07T08:28:49.575Z,23.30
2022-09-07T08:31:16.975Z,23.50
2022-09-07T08:33:43.771Z,23.60
2022-09-07T08:36:18.506Z,23.60
2022-09-07T08:38:45.683Z,23.60
2022-09-07T08:41:52.639Z,23.60
2022-09-07T08:44:33.171Z,23.60
2022-09-07T08:47:21.581Z,23.50
2022-09-07T08:50:10.132Z,23.50
2022-09-07T08:52:47.623Z,23.60
2022-09-07T08:55:31.574Z,23.70
2022-09-07T08:58:32.702Z,23.90
2022-09-07T09:04:17.916Z,24.10
2022-09-07T09:06:47.768Z,24.20
2022-09-07T09:09:23.506Z,24.00
2022-09-07T09:12:19.872Z,24.20
2022-09-07T09:15:13.570Z,24.30
2022-09-07T09:18:02.910Z,24.30
2022-09-07T09:20:46.298Z,24.30
2022-09-07T09:23:16.831Z,24.40
2022-09-07T09:25:59.171Z,24.50
2022-09-07T09:28:27.706Z,24.70
2022-09-07T09:30:56.878Z,24.80
2022-09-07T09:33:25.970Z,24.90
2022-09-07T09:35:54.756Z,25.00
2022-09-07T09:38:39.394Z,25.10
2022-09-07T09:41:12.296Z,25.30
2022-09-07T09:43:46.793Z,25.60
2022-09-07T09:46:28.147Z,25.60
2022-09-07T09:49:19.776Z,25.70
2022-09-07T09:54:43.262Z,26.00
2022-09-07T09:57:16.985Z,26.00
2022-09-07T10:00:01.965Z,26.30
2022-09-07T10:05:37.880Z,26.10
2022-09-07T10:08:16.291Z,25.80
2022-09-07T10:11:04.659Z,25.90
2022-09-07T10:13:35.126Z,26.00
2022-09-07T10:16:07.405Z,26.40
2022-09-07T10:18:57.571Z,26.20
2022-09-07T10:21:32.190Z,26.30
2022-09-07T10:24:06.316Z,26.20
2022-09-07T10:26:36.716Z,26.70
2022-09-07T10:29:22.631Z,26.90
2022-09-07T10:32:05.900Z,27.10
2022-09-07T10:34:42.491Z,27.20
2022-09-07T10:37:13.431Z,27.40
2022-09-07T10:39:42.885Z,27.20
2022-09-07T10:42:09.412Z,26.50
2022-09-07T10:44:48.037Z,26.30
2022-09-07T10:47:20.534Z,26.10
2022-09-07T10:53:36.624Z,25.60
2022-09-07T10:56:03.697Z,25.20
2022-09-07T10:59:04.415Z,24.90
2022-09-07T11:01:50.250Z,25.00
2022-09-07T11:04:34.221Z,25.40
2022-09-07T11:07:42.572Z,25.50
2022-09-07T11:10:32.418Z,25.50
2022-09-07T11:13:04.477Z,25.30
2022-09-07T11:15:39.881Z,25.80
2022-09-07T11:18:13.378Z,26.10
2022-09-07T11:20:54.896Z,26.30
2022-09-07T11:23:43.457Z,26.50
2022-09-07T11:26:36.884Z,26.80
2022-09-07T11:29:40.648Z,27.30
2022-09-07T11:32:12.370Z,27.80
2022-09-07T11:34:48.653Z,28.60
2022-09-07T11:37:39.814Z,28.60
2022-09-07T11:40:16.417Z,28.60
2022-09-07T11:43:11.503Z,28.90
2022-09-07T11:45:49.265Z,28.80
2022-09-07T11:48:30.441Z,28.30
2022-09-07T11:51:07.577Z,28.10
2022-09-07T11:53:38.065Z,27.20
2022-09-07T11:56:13.638Z,26.70
2022-09-07T11:58:57.693Z,26.50
2022-09-07T12:01:48.000Z,26.70
2022-09-07T12:04:57.028Z,27.30
2022-09-07T12:07:34.746Z,28.00
2022-09-07T12:10:23.706Z,28.40
2022-09-07T12:13:21.507Z,27.90
2022-09-07T12:16:04.427Z,28.00
2022-09-07T12:18:39.928Z,27.90
2022-09-07T12:21:29.214Z,27.90
2022-09-07T12:23:56.317Z,27.90
2022-09-07T12:26:37.885Z,27.30
2022-09-07T12:29:18.671Z,27.10
2022-09-07T12:31:59.592Z,27.20
2022-09-07T12:34:34.047Z,27.70
2022-09-07T12:37:12.390Z,27.90
2022-09-07T12:39:43.806Z,28.00
2022-09-07T12:42:33.148Z,27.90
2022-09-07T12:45:38.722Z,27.80
2022-09-07T12:48:08.373Z,27.70
2022-09-07T12:51:04.284Z,27.90
2022-09-07T12:53:39.827Z,28.50
2022-09-07T12:56:17.456Z,28.60
2022-09-07T12:59:03.920Z,28.90
2022-09-07T13:01:36.577Z,28.50
2022-09-07T13:04:22.964Z,28.40
2022-09-07T13:07:23.359Z,28.20
2022-09-07T13:10:01.217Z,28.50
2022-09-07T13:12:57.313Z,28.90
2022-09-07T13:15:42.481Z,29.30
2022-09-07T13:18:35.161Z,29.10
2022-09-07T13:21:12.073Z,29.30
2022-09-07T13:23:40.430Z,28.90
2022-09-07T13:26:10.651Z,28.90
2022-09-07T13:29:02.075Z,29.20
2022-09-07T13:32:08.026Z,28.80
2022-09-07T13:34:34.599Z,28.60
2022-09-07T13:37:03.789Z,29.00
2022-09-07T13:39:39.375Z,29.20
2022-09-07T13:42:06.385Z,29.30
2022-09-07T13:44:34.286Z,29.00
2022-09-07T13:47:17.618Z,28.90
2022-09-07T13:50:05.969Z,28.70
2022-09-07T13:53:08.390Z,28.50
2022-09-07T13:56:06.033Z,27.50
2022-09-07T13:58:39.826Z,27.00
2022-09-07T14:01:15.873Z,27.30
2022-09-07T14:03:55.694Z,27.40
2022-09-07T14:06:22.201Z,27.30
2022-09-07T14:09:00.650Z,27.10
2022-09-07T14:11:41.252Z,26.90
2022-09-07T14:14:08.829Z,27.30
2022-09-07T14:16:36.454Z,27.40
2022-09-07T14:19:23.944Z,27.20
2022-09-07T14:22:02.475Z,26.90
2022-09-07T14:24:52.071Z,27.00
2022-09-07T14:27:41.532Z,27.40
2022-09-07T14:30:28.151Z,27.70
2022-09-07T14:32:57.576Z,27.90
2022-09-07T14:35:32.401Z,28.20
2022-09-07T14:38:14.270Z,28.10
2022-09-07T14:40:41.458Z,28.10
2022-09-07T14:43:31.793Z,27.70
2022-09-07T14:46:26.475Z,27.40
2022-09-07T14:48:55.816Z,27.20
2022-09-07T14:51:36.089Z,27.00
2022-09-07T14:54:05.946Z,27.00
2022-09-07T14:56:36.936Z,26.90
2022-09-07T14:59:35.348Z,26.80
2022-09-07T15:02:17.737Z,26.80
2022-09-07T15:04:45.421Z,26.70
2022-09-07T15:07:38.394Z,26.70
2022-09-07T15:10:23.524Z,27.00
2022-09-07T15:12:59.325Z,27.00
2022-09-07T15:15:30.330Z,27.10
2022-09-07T15:18:05.859Z,27.00
2022-09-07T15:20:43.962Z,27.30
2022-09-07T15:23:17.420Z,27.40
2022-09-07T15:25:51.186Z,27.40
2022-09-07T15:34:12.748Z,26.50
2022-09-07T15:36:42.312Z,26.10
2022-09-07T15:39:27.379Z,25.90
2022-09-07T15:41:54.290Z,25.70
2022-09-07T15:44:25.157Z,25.70
2022-09-07T15:49:44.693Z,25.60
2022-09-07T15:52:15.921Z,25.60
2022-09-07T15:54:43.502Z,25.70
2022-09-07T15:59:56.881Z,25.90
2022-09-07T16:05:10.528Z,26.00
2022-09-07T16:10:24.406Z,26.10
2022-09-07T16:15:45.898Z,25.70
2022-09-07T16:18:16.488Z,25.40
2022-09-07T16:20:43.740Z,25.20
2022-09-07T16:23:13.988Z,25.20
2022-09-07T16:25:42.202Z,25.10
2022-09-07T16:28:09.328Z,25.00
2022-09-07T16:30:39.678Z,25.00
2022-09-07T16:33:06.370Z,24.90
2022-09-07T16:35:33.078Z,24.90
2022-09-07T16:40:46.633Z,24.70
2022-09-07T16:43:13.178Z,24.60
2022-09-07T16:48:26.262Z,24.80
2022-09-07T16:51:01.569Z,24.80
2022-09-07T16:53:30.436Z,24.90
2022-09-07T16:56:02.105Z,24.80
2022-09-07T16:58:37.972Z,24.70
2022-09-07T17:01:06.720Z,24.60
2022-09-07T17:03:33.798Z,24.50
2022-09-07T17:06:00.899Z,24.40
2022-09-07T17:08:27.972Z,24.30
2022-09-07T17:11:09.356Z,24.10
2022-09-07T17:13:37.349Z,24.00
2022-09-07T17:16:22.162Z,23.90
2022-09-07T17:21:38.467Z,23.70
2022-09-07T17:24:06.603Z,23.60
2022-09-07T17:26:33.646Z,23.50
2022-09-07T17:29:00.886Z,23.40
2022-09-07T17:34:17.127Z,23.20
2022-09-07T17:36:43.778Z,23.10
2022-09-07T17:39:14.922Z,23.10
2022-09-07T17:41:43.529Z,23.00
2022-09-07T17:44:10.189Z,23.00
2022-09-07T17:46:36.773Z,22.90
2022-09-07T17:49:03.600Z,22.90
2022-09-07T17:51:31.470Z,22.90
2022-09-07T17:54:02.294Z,22.90
2022-09-07T17:56:29.822Z,22.90
2022-09-07T18:00:10.722Z,22.90
2022-09-07T18:01:43.483Z,23.00
2022-09-07T18:04:10.925Z,23.00
2022-09-07T18:06:37.594Z,22.90
2022-09-07T18:09:05.405Z,22.80
2022-09-07T18:11:49.183Z,22.70
2022-09-07T18:14:16.975Z,22.60
2022-09-07T18:16:45.228Z,22.20
2022-09-07T18:24:16.456Z,21.30
2022-09-07T18:26:43.300Z,21.10
2022-09-07T18:29:27.693Z,20.60
2022-09-07T18:31:56.203Z,20.50
2022-09-07T18:34:23.160Z,20.50
2022-09-07T18:36:50.097Z,20.30
2022-09-07T18:39:16.660Z,20.30
2022-09-07T18:41:43.268Z,20.20
2022-09-07T18:46:56.470Z,20.10
2022-09-07T18:49:23.544Z,20.20
2022-09-07T18:54:38.663Z,20.20
2022-09-07T18:57:06.693Z,20.20
2022-09-07T18:59:33.769Z,20.10
2022-09-07T19:02:04.343Z,20.20
2022-09-07T19:07:20.432Z,20.10
2022-09-07T19:09:48.018Z,20.00
2022-09-07T19:12:14.598Z,19.90
2022-09-07T19:14:42.078Z,19.90
2022-09-07T19:17:10.782Z,19.90
2022-09-07T19:19:38.107Z,19.80
2022-09-07T19:46:51.297Z,19.60
2022-09-07T20:01:45.694Z,19.40
2022-09-07T20:04:19.501Z,19.30
2022-09-07T20:06:49.535Z,19.10
2022-09-07T20:09:17.242Z,19.10
2022-09-07T20:11:46.476Z,19.00
2022-09-07T20:14:14.977Z,18.90
2022-09-07T20:16:41.966Z,18.90
2022-09-07T20:21:36.836Z,18.90
2022-09-07T20:24:04.015Z,18.90
2022-09-07T20:26:32.196Z,18.90
2022-09-07T20:29:16.726Z,18.80
2022-09-07T20:31:46.931Z,18.90
2022-09-07T20:34:13.982Z,18.90
2022-09-07T20:36:40.791Z,18.80
2022-09-07T20:39:07.556Z,19.00
2022-09-07T20:41:34.980Z,18.70
2022-09-07T20:44:03.273Z,18.70
2022-09-07T20:46:30.603Z,18.70
2022-09-07T20:48:57.442Z,18.70
2022-09-07T20:51:24.201Z,18.70
2022-09-07T20:53:51.282Z,18.70
2022-09-07T20:56:21.547Z,18.60
2022-09-07T20:58:49.277Z,18.60
2022-09-07T21:01:18.022Z,18.60
2022-09-07T21:03:53.269Z,18.60
2022-09-07T21:06:21.229Z,18.50
2022-09-07T21:08:49.245Z,18.50
2022-09-07T21:11:18.817Z,18.50
2022-09-07T21:13:46.546Z,18.50
2022-09-07T21:16:15.313Z,18.40
2022-09-07T21:18:43.918Z,18.50
2022-09-07T21:21:19.715Z,18.40
2022-09-07T21:23:47.071Z,18.40
2022-09-07T21:26:13.973Z,18.40
2022-09-07T21:28:40.505Z,18.30
2022-09-07T21:31:08.597Z,18.30
2022-09-07T21:33:37.242Z,18.30
2022-09-07T21:36:06.281Z,18.40
2022-09-07T21:38:34.355Z,18.30
2022-09-07T21:41:09.546Z,18.30
2022-09-07T21:43:36.573Z,18.40
2022-09-07T21:46:18.357Z,18.40
2022-09-07T21:48:46.145Z,18.40
2022-09-07T21:51:14.026Z,18.50
2022-09-07T21:53:41.406Z,18.50
2022-09-07T21:56:11.090Z,18.50
2022-09-07T21:58:38.455Z,18.60
2022-09-07T22:01:18.664Z,18.60
2022-09-07T22:03:47.854Z,18.60
2022-09-07T22:06:15.002Z,18.60
2022-09-07T22:08:42.340Z,18.60
2022-09-07T22:11:20.832Z,18.70
2022-09-07T22:13:47.710Z,18.70
2022-09-07T22:16:15.476Z,18.70
2022-09-07T22:18:45.809Z,18.60
2022-09-07T22:21:24.687Z,18.60
2022-09-07T22:23:55.314Z,18.60
2022-09-07T22:26:24.311Z,18.60
2022-09-07T22:28:51.219Z,18.50
2022-09-07T22:31:24.509Z,18.50
2022-09-07T22:33:52.260Z,18.50
2022-09-07T22:36:27.886Z,18.50
2022-09-07T22:38:56.707Z,18.40
2022-09-07T22:41:25.558Z,18.40
2022-09-07T22:43:52.303Z,18.40
2022-09-07T22:46:20.495Z,18.40
2022-09-07T22:48:47.311Z,18.40
2022-09-07T22:51:14.266Z,18.40
2022-09-07T22:53:42.702Z,18.50
2022-09-07T22:56:21.836Z,18.50
2022-09-07T22:58:53.293Z,18.50
2022-09-07T23:01:20.897Z,18.50
2022-09-07T23:03:47.889Z,18.50
2022-09-07T23:06:26.391Z,18.50
2022-09-07T23:08:54.720Z,18.50
2022-09-07T23:11:22.560Z,18.60
2022-09-07T23:13:58.284Z,18.60
2022-09-07T23:16:25.915Z,18.60
2022-09-07T23:18:52.625Z,18.60
2022-09-07T23:21:19.309Z,18.60
2022-09-07T23:23:53.399Z,18.60
2022-09-07T23:26:21.376Z,18.50
2022-09-07T23:28:59.524Z,18.60
2022-09-07T23:31:27.321Z,18.50
2022-09-07T23:33:55.400Z,18.50
2022-09-07T23:36:21.955Z,18.50
2022-09-07T23:38:48.843Z,18.50
2022-09-07T23:41:19.419Z,18.40
2022-09-07T23:43:46.092Z,18.40
2022-09-07T23:46:13.737Z,18.30
2022-09-07T23:48:40.607Z,18.40
2022-09-07T23:51:07.160Z,18.30
2022-09-07T23:53:33.868Z,18.30
2022-09-07T23:56:00.713Z,18.30
2022-09-07T23:58:27.275Z,18.30
